sensor_id;sensor_type;location;lat;lon;timestamp;P1;durP1;ratioP1;P2;durP2;ratioP2
32427;SDS011;18882;50.952;4.366;2023-08-01T00:01:25;4.28;;;1.42;;
32427;SDS011;18882;50.952;4.366;2023-08-01T00:04:04;2.03;;;1.92;;
32427;SDS011;18882;50.952;4.366;2023-08-01T00:06:48;1.90;;;1.38;;
32427;SDS011;18882;50.952;4.366;2023-08-01T03:33:15;12.75;;;6.25;;
32427;SDS011;18882;50.952;4.366;2023-08-01T03:36:14;11.07;;;5.65;;
32427;SDS011;18882;50.952;4.366;2023-08-01T03:42:06;12.85;;;6.20;;
32427;SDS011;18882;50.952;4.366;2023-08-01T03:44:56;11.93;;;6.35;;
32427;SDS011;18882;50.952;4.366;2023-08-01T03:48:01;14.93;;;6.10;;
32427;SDS011;18882;50.952;4.366;2023-08-01T03:50:56;16.80;;;6.82;;
32427;SDS011;18882;50.952;4.366;2023-08-01T03:53:56;17.02;;;6.55;;
32427;SDS011;18882;50.952;4.366;2023-08-01T03:56:38;17.33;;;6.60;;
32427;SDS011;18882;50.952;4.366;2023-08-01T03:59:11;13.00;;;6.40;;
32427;SDS011;18882;50.952;4.366;2023-08-01T04:02:19;19.83;;;6.82;;
32427;SDS011;18882;50.952;4.366;2023-08-01T04:05:47;17.48;;;7.00;;
32427;SDS011;18882;50.952;4.366;2023-08-01T09:08:50;9.68;;;3.30;;
32427;SDS011;18882;50.952;4.366;2023-08-01T09:15:12;6.35;;;2.95;;
32427;SDS011;18882;50.952;4.366;2023-08-01T09:18:29;5.70;;;2.50;;
32427;SDS011;18882;50.952;4.366;2023-08-01T09:21:38;5.10;;;2.73;;
32427;SDS011;18882;50.952;4.366;2023-08-01T13:27:17;0.75;;;0.70;;
32427;SDS011;18882;50.952;4.366;2023-08-01T13:30:52;2.05;;;0.88;;
32427;SDS011;18882;50.952;4.366;2023-08-01T13:34:36;6.82;;;1.25;;
32427;SDS011;18882;50.952;4.366;2023-08-01T13:37:59;6.13;;;0.73;;
32427;SDS011;18882;50.952;4.366;2023-08-01T13:48:28;1.63;;;0.80;;
32427;SDS011;18882;50.952;4.366;2023-08-01T13:51:44;3.50;;;0.70;;
32427;SDS011;18882;50.952;4.366;2023-08-01T13:55:22;6.80;;;1.00;;
32427;SDS011;18882;50.952;4.366;2023-08-01T13:58:37;3.40;;;1.25;;
32427;SDS011;18882;50.952;4.366;2023-08-01T14:01:53;4.28;;;1.05;;
32427;SDS011;18882;50.952;4.366;2023-08-01T14:05:26;4.57;;;1.10;;
32427;SDS011;18882;50.952;4.366;2023-08-01T14:12:06;2.05;;;0.98;;
32427;SDS011;18882;50.952;4.366;2023-08-01T14:15:51;4.85;;;1.20;;
32427;SDS011;18882;50.952;4.366;2023-08-01T14:26:08;9.70;;;1.92;;
32427;SDS011;18882;50.952;4.366;2023-08-01T14:29:08;4.25;;;1.40;;
32427;SDS011;18882;50.952;4.366;2023-08-01T14:32:32;3.33;;;1.17;;
32427;SDS011;18882;50.952;4.366;2023-08-01T14:36:02;8.07;;;0.98;;
32427;SDS011;18882;50.952;4.366;2023-08-01T14:45:50;1.75;;;0.73;;
32427;SDS011;18882;50.952;4.366;2023-08-01T14:52:46;6.25;;;1.35;;
32427;SDS011;18882;50.952;4.366;2023-08-01T14:56:11;2.13;;;0.65;;
32427;SDS011;18882;50.952;4.366;2023-08-01T14:59:37;6.05;;;1.00;;
32427;SDS011;18882;50.952;4.366;2023-08-01T15:03:06;4.65;;;1.10;;
32427;SDS011;18882;50.952;4.366;2023-08-01T15:06:40;4.40;;;1.65;;
32427;SDS011;18882;50.952;4.366;2023-08-01T15:09:52;3.72;;;1.38;;
32427;SDS011;18882;50.952;4.366;2023-08-01T18:30:53;5.53;;;1.40;;
32427;SDS011;18882;50.952;4.366;2023-08-01T18:33:42;3.97;;;1.38;;
32427;SDS011;18882;50.952;4.366;2023-08-01T18:36:43;4.63;;;1.45;;
32427;SDS011;18882;50.952;4.366;2023-08-01T18:39:35;5.32;;;1.38;;
32427;SDS011;18882;50.952;4.366;2023-08-01T18:42:25;5.97;;;1.60;;
32427;SDS011;18882;50.952;4.366;2023-08-01T18:45:36;10.02;;;1.70;;
32427;SDS011;18882;50.952;4.366;2023-08-01T18:48:36;8.38;;;1.45;;
